Time;durP1;ratioP1;P1;durP2;ratioP2;P2;SDS_P1;SDS_P2;PMS_P1;PMS_P2;Temp;Humidity;BMP_temperature;BMP_pressure;BME280_temperature;BME280_humidity;BME280_pressure;Samples;Min_cycle;Max_cycle;Signal;HPM_P1;HPM_P2
2023/07/27 00:01:16;;;;;;;5.95;4.22;;;15.20;99.90;;;;;;5037053;28;20418;-65
2023/07/27 00:03:42;;;;;;;7.60;4.88;;;15.20;99.90;;;;;;5053073;28;20063;-64
2023/07/27 00:06:10;;;;;;;5.38;4.20;;;15.20;99.90;;;;;;5036136;28;20049;-64
2023/07/27 00:08:36;;;;;;;6.57;4.18;;;15.20;99.90;;;;;;5054238;28;20051;-64
2023/07/27 00:11:03;;;;;;;8.43;4.70;;;15.20;99.90;;;;;;5036525;28;20049;-64
2023/07/27 00:13:30;;;;;;;5.93;4.55;;;15.20;99.90;;;;;;5048329;28;20115;-64
2023/07/27 00:15:56;;;;;;;5.88;3.97;;;15.20;99.90;;;;;;5033959;28;20103;-66
2023/07/27 00:18:22;;;;;;;6.20;4.30;;;15.20;99.90;;;;;;5033564;28;20056;-65
2023/07/27 00:20:49;;;;;;;8.32;4.47;;;15.20;99.90;;;;;;5016401;28;20115;-65
2023/07/27 00:23:15;;;;;;;6.50;4.38;;;15.20;99.90;;;;;;5036736;28;20053;-66
2023/07/27 00:25:41;;;;;;;8.30;5.07;;;15.20;99.90;;;;;;5053647;28;20061;-65
2023/07/27 00:28:07;;;;;;;5.90;4.63;;;15.30;99.90;;;;;;5053009;28;20049;-64
2023/07/27 00:30:34;;;;;;;7.72;4.85;;;15.30;99.90;;;;;;5053646;28;20057;-65
2023/07/27 00:33:00;;;;;;;6.95;4.70;;;15.30;99.90;;;;;;5052237;28;20059;-64
2023/07/27 00:35:26;;;;;;;7.07;4.45;;;15.30;99.90;;;;;;5033441;28;20049;-64
2023/07/27 00:37:52;;;;;;;6.45;4.63;;;15.40;99.90;;;;;;5015159;28;20068;-64
2023/07/27 00:40:19;;;;;;;8.05;4.53;;;15.40;99.90;;;;;;5016148;28;20458;-64
2023/07/27 00:42:45;;;;;;;7.10;4.70;;;15.40;99.90;;;;;;5033569;28;20107;-65
2023/07/27 00:45:11;;;;;;;8.52;5.32;;;15.40;99.90;;;;;;5052051;28;20052;-64
2023/07/27 00:47:38;;;;;;;6.78;4.60;;;15.40;99.90;;;;;;5052769;28;20087;-66
2023/07/27 00:50:06;;;;;;;6.97;4.75;;;15.40;99.90;;;;;;5047187;28;20064;-64
2023/07/27 00:52:32;;;;;;;8.30;4.80;;;15.40;99.90;;;;;;5033266;28;20050;-64
2023/07/27 00:54:59;;;;;;;6.68;5.25;;;15.40;99.90;;;;;;5032771;28;20049;-66
2023/07/27 00:57:25;;;;;;;7.68;5.15;;;15.40;99.90;;;;;;5052478;28;20045;-64
2023/07/27 00:59:52;;;;;;;8.13;4.38;;;15.40;99.90;;;;;;5035475;28;20049;-64
2023/07/27 01:02:19;;;;;;;6.93;4.75;;;15.40;99.90;;;;;;5019010;28;20045;-63
2023/07/27 01:04:46;;;;;;;7.28;5.03;;;15.40;99.90;;;;;;5036654;28;20045;-65
2023/07/27 01:07:17;;;;;;;8.00;5.28;;;15.30;99.90;;;;;;5014581;28;20045;-64
2023/07/27 01:09:45;;;;;;;6.93;4.82;;;15.40;99.90;;;;;;5032733;28;20045;-65
2023/07/27 01:12:23;;;;;;;6.30;4.65;;;15.30;99.90;;;;;;5032880;28;20045;-64
2023/07/27 01:15:06;;;;;;;7.82;5.00;;;15.30;99.90;;;;;;5048446;28;20409;-65
2023/07/27 01:17:38;;;;;;;9.30;4.78;;;15.30;99.90;;;;;;5052354;28;20457;-64
2023/07/27 01:20:21;;;;;;;7.10;4.88;;;15.30;99.90;;;;;;5052270;28;20049;-64
2023/07/27 01:23:03;;;;;;;7.80;4.85;;;15.30;99.90;;;;;;5035330;28;20045;-64
2023/07/27 01:25:57;;;;;;;8.85;5.10;;;15.30;99.90;;;;;;5032813;28;20053;-66
2023/07/27 01:29:01;;;;;;;7.13;5.22;;;15.20;99.90;;;;;;5014818;28;20057;-64
2023/07/27 01:31:32;;;;;;;7.15;5.07;;;15.30;99.90;;;;;;5032679;28;20057;-63
2023/07/27 01:34:05;;;;;;;6.63;5.28;;;15.20;99.90;;;;;;5032960;28;20586;-65
2023/07/27 01:36:38;;;;;;;8.40;5.18;;;15.20;99.90;;;;;;5031737;28;20049;-64
2023/07/27 01:39:09;;;;;;;11.13;5.40;;;15.20;99.90;;;;;;5015160;28;20055;-64
2023/07/27 01:41:37;;;;;;;8.05;5.63;;;15.20;99.90;;;;;;5032718;28;20297;-64
2023/07/27 01:44:05;;;;;;;8.65;5.38;;;15.10;99.90;;;;;;5024473;28;20072;-64
2023/07/27 01:46:32;;;;;;;7.72;5.55;;;15.20;99.90;;;;;;5052280;28;20049;-64
2023/07/27 01:49:01;;;;;;;8.02;4.93;;;15.20;99.90;;;;;;5034404;28;20053;-65
2023/07/27 01:51:29;;;;;;;9.25;4.97;;;15.20;99.90;;;;;;5034917;28;20053;-64
2023/07/27 01:54:04;;;;;;;7.80;5.70;;;15.20;99.90;;;;;;5034566;28;20437;-63
2023/07/27 01:56:32;;;;;;;5.75;4.65;;;15.20;99.90;;;;;;5051555;28;20041;-65
2023/07/27 01:59:00;;;;;;;9.10;6.13;;;15.20;99.90;;;;;;5034318;28;20061;-64
2023/07/27 02:01:28;;;;;;;7.47;5.22;;;15.20;99.90;;;;;;5052118;28;20041;-63
2023/07/27 02:03:55;;;;;;;8.85;5.82;;;15.20;99.90;;;;;;5044457;28;20053;-64
2023/07/27 02:06:21;;;;;;;9.18;5.65;;;15.20;99.90;;;;;;5031735;28;20054;-65
2023/07/27 02:08:47;;;;;;;8.43;5.90;;;15.20;99.90;;;;;;5014633;28;20049;-65
2023/07/27 02:11:16;;;;;;;9.13;5.60;;;15.20;99.90;;;;;;5031781;28;20367;-65
2023/07/27 02:13:54;;;;;;;8.60;5.90;;;15.20;99.90;;;;;;5021184;28;20110;-64
2023/07/27 02:16:41;;;;;;;7.93;5.07;;;15.20;99.90;;;;;;5052319;28;20072;-65
2023/07/27 02:19:10;;;;;;;8.80;6.10;;;15.20;99.90;;;;;;5038402;28;20054;-64
2023/07/27 02:21:38;;;;;;;9.45;5.97;;;15.10;99.90;;;;;;5038421;28;20369;-66
2023/07/27 02:24:05;;;;;;;9.70;5.97;;;15.20;99.90;;;;;;5046779;28;20063;-65
2023/07/27 02:26:33;;;;;;;10.18;5.55;;;15.20;99.90;;;;;;5017773;28;20049;-64
2023/07/27 02:28:59;;;;;;;10.55;6.30;;;15.10;99.90;;;;;;5035824;28;20144;-65
2023/07/27 02:31:26;;;;;;;8.27;6.10;;;15.20;99.90;;;;;;5018190;28;20049;-64
2023/07/27 02:33:52;;;;;;;9.02;5.90;;;15.10;99.90;;;;;;5036361;28;20053;-64
2023/07/27 02:36:19;;;;;;;8.73;6.05;;;15.10;99.90;;;;;;5035183;28;20123;-64
2023/07/27 02:38:46;;;;;;;9.07;6.65;;;15.10;99.90;;;;;;5035271;28;20417;-64
2023/07/27 02:41:12;;;;;;;8.90;6.03;;;15.10;99.90;;;;;;5035577;28;20148;-64
2023/07/27 02:43:39;;;;;;;8.07;6.70;;;15.10;99.90;;;;;;5040526;28;20385;-63
2023/07/27 02:46:06;;;;;;;8.52;5.90;;;15.10;99.90;;;;;;5037680;28;20118;-64
2023/07/27 02:48:32;;;;;;;8.70;6.78;;;15.00;99.90;;;;;;5021231;28;20052;-64
2023/07/27 02:50:58;;;;;;;8.38;6.22;;;15.00;99.90;;;;;;5055241;28;20118;-64
2023/07/27 02:53:25;;;;;;;8.05;5.80;;;15.00;99.90;;;;;;5051569;28;20061;-63
2023/07/27 02:56:09;;;;;;;9.05;6.43;;;15.00;99.90;;;;;;5034682;28;20045;-64
2023/07/27 02:58:36;;;;;;;8.73;6.03;;;14.90;99.90;;;;;;5017236;28;20041;-65
2023/07/27 03:01:03;;;;;;;8.07;5.93;;;15.00;99.90;;;;;;5034603;28;20382;-63
2023/07/27 03:03:29;;;;;;;9.43;5.63;;;14.90;99.90;;;;;;5022065;28;20387;-63
2023/07/27 03:05:58;;;;;;;9.70;5.72;;;14.90;99.90;;;;;;5054536;28;20526;-65
2023/07/27 03:08:25;;;;;;;7.88;5.55;;;14.80;99.90;;;;;;5054431;28;20420;-65
2023/07/27 03:10:54;;;;;;;10.35;6.10;;;14.80;99.90;;;;;;5037133;28;20057;-64
2023/07/27 03:13:20;;;;;;;8.52;5.85;;;14.80;99.90;;;;;;5053627;28;20045;-64
2023/07/27 03:15:47;;;;;;;8.57;5.63;;;14.80;99.90;;;;;;5036694;28;20098;-65
2023/07/27 03:18:13;;;;;;;8.32;5.82;;;14.70;99.90;;;;;;5037192;28;20045;-65
2023/07/27 03:20:40;;;;;;;8.73;6.22;;;14.70;99.90;;;;;;5020523;28;20068;-65
2023/07/27 03:23:08;;;;;;;9.32;6.10;;;14.60;99.90;;;;;;5035880;28;20052;-66
2023/07/27 03:25:36;;;;;;;8.23;5.47;;;14.70;99.90;;;;;;5016905;28;20057;-66
2023/07/27 03:28:08;;;;;;;7.70;6.07;;;14.80;99.90;;;;;;5015628;28;20063;-65
2023/07/27 03:30:38;;;;;;;9.77;6.47;;;14.70;99.90;;;;;;5020075;28;20063;-66
2023/07/27 03:33:05;;;;;;;9.70;6.28;;;14.70;99.90;;;;;;5035674;28;20056;-65
2023/07/27 03:35:33;;;;;;;9.82;6.85;;;14.60;99.90;;;;;;5033818;28;20457;-64
2023/07/27 03:37:59;;;;;;;10.15;6.05;;;14.60;99.90;;;;;;4999918;28;20053;-64
2023/07/27 03:40:28;;;;;;;8.57;5.90;;;14.60;99.90;;;;;;5016421;28;20088;-65
2023/07/27 03:42:56;;;;;;;8.10;5.97;;;14.50;99.90;;;;;;5017050;28;20168;-64
2023/07/27 03:45:22;;;;;;;8.18;6.03;;;14.40;99.90;;;;;;5068811;28;20057;-66
2023/07/27 03:47:48;;;;;;;8.43;5.60;;;14.50;99.90;;;;;;5036226;28;20132;-65
2023/07/27 03:50:15;;;;;;;8.65;6.60;;;14.40;99.90;;;;;;5036391;28;20049;-64
2023/07/27 03:52:41;;;;;;;10.07;6.35;;;14.40;99.90;;;;;;5036565;28;20057;-65
2023/07/27 03:55:08;;;;;;;8.82;5.82;;;14.40;99.90;;;;;;5019645;28;20048;-64
2023/07/27 03:57:35;;;;;;;8.82;6.03;;;14.40;99.90;;;;;;5035952;28;20382;-65
2023/07/27 04:00:02;;;;;;;8.00;6.18;;;14.30;99.90;;;;;;5053679;28;20045;-64
2023/07/27 04:02:28;;;;;;;9.43;6.80;;;14.30;99.90;;;;;;5036340;28;20444;-64
2023/07/27 04:04:55;;;;;;;7.32;5.38;;;14.30;99.90;;;;;;5038393;28;20068;-65
2023/07/27 04:07:21;;;;;;;7.15;5.18;;;14.40;99.90;;;;;;4999800;28;20409;-66
2023/07/27 04:09:47;;;;;;;7.15;5.55;;;14.30;99.90;;;;;;5033807;28;20049;-66
2023/07/27 04:12:14;;;;;;;9.50;5.45;;;14.30;99.90;;;;;;5016187;28;20118;-64
2023/07/27 04:14:40;;;;;;;7.60;5.13;;;14.30;99.90;;;;;;5029490;28;20053;-65
2023/07/27 04:17:06;;;;;;;8.13;5.65;;;14.30;99.90;;;;;;5036602;28;20053;-64
2023/07/27 04:19:34;;;;;;;8.10;5.72;;;14.30;99.90;;;;;;5035752;28;20051;-66
2023/07/27 04:22:01;;;;;;;7.72;5.38;;;14.40;99.90;;;;;;5035829;28;20176;-65
2023/07/27 04:24:27;;;;;;;6.60;5.05;;;14.30;99.90;;;;;;5034948;28;20071;-64
2023/07/27 04:26:53;;;;;;;7.72;5.05;;;14.30;99.90;;;;;;5052409;28;20052;-64
2023/07/27 04:29:20;;;;;;;9.35;5.53;;;14.30;99.90;;;;;;5035014;28;20052;-64
2023/07/27 04:31:47;;;;;;;7.18;5.45;;;14.40;99.90;;;;;;5053050;28;20045;-65
2023/07/27 04:34:14;;;;;;;8.57;5.65;;;14.30;99.90;;;;;;5035050;28;20056;-64
2023/07/27 04:36:40;;;;;;;8.88;5.65;;;14.40;99.90;;;;;;5026962;28;20291;-64
2023/07/27 04:39:06;;;;;;;8.10;5.57;;;14.40;99.90;;;;;;5032673;28;20042;-65
2023/07/27 04:41:33;;;;;;;8.48;5.93;;;14.40;99.90;;;;;;5032386;28;20355;-64
2023/07/27 04:43:59;;;;;;;7.88;6.20;;;14.40;99.90;;;;;;5031650;28;20045;-65
2023/07/27 04:46:27;;;;;;;7.32;5.38;;;14.40;99.90;;;;;;4998858;28;20045;-64
2023/07/27 04:48:55;;;;;;;8.10;5.80;;;14.40;99.90;;;;;;5032243;28;20132;-65
2023/07/27 04:51:21;;;;;;;7.03;5.72;;;14.40;99.90;;;;;;5032734;28;20046;-65
2023/07/27 04:53:47;;;;;;;9.05;6.10;;;14.40;99.90;;;;;;5015146;28;20050;-66
2023/07/27 04:56:13;;;;;;;7.90;5.93;;;14.40;99.90;;;;;;5032095;28;20049;-66
2023/07/27 04:58:40;;;;;;;10.93;6.82;;;14.40;99.90;;;;;;5014870;28;20108;-65
2023/07/27 05:01:06;;;;;;;9.45;6.53;;;14.40;99.90;;;;;;5032475;28;20042;-65
2023/07/27 05:03:32;;;;;;;8.88;6.88;;;14.40;99.90;;;;;;5012120;28;20053;-64
2023/07/27 05:05:59;;;;;;;11.60;6.72;;;14.40;99.90;;;;;;4984728;28;20041;-65
2023/07/27 05:08:26;;;;;;;8.07;6.40;;;14.40;99.90;;;;;;5014661;28;20076;-66
2023/07/27 05:10:52;;;;;;;8.82;6.53;;;14.40;99.90;;;;;;5032234;28;20053;-64
2023/07/27 05:13:20;;;;;;;7.97;6.18;;;14.50;99.90;;;;;;5023202;28;20045;-64
2023/07/27 05:15:46;;;;;;;8.63;6.35;;;14.40;99.90;;;;;;5019511;28;20103;-65
2023/07/27 05:18:14;;;;;;;10.10;6.60;;;14.50;99.90;;;;;;5032269;28;20045;-66
2023/07/27 05:20:40;;;;;;;10.52;7.13;;;14.50;99.90;;;;;;5014092;28;20760;-65
2023/07/27 05:23:06;;;;;;;9.70;6.65;;;14.50;99.90;;;;;;5014613;28;20482;-65
2023/07/27 05:25:33;;;;;;;8.48;6.70;;;14.60;99.90;;;;;;5031253;28;20111;-66
2023/07/27 05:27:59;;;;;;;8.65;6.28;;;14.40;99.90;;;;;;5014477;28;20045;-64
2023/07/27 05:30:25;;;;;;;9.80;6.72;;;14.50;99.90;;;;;;5031234;28;20056;-66
2023/07/27 05:32:52;;;;;;;10.68;7.30;;;14.60;99.90;;;;;;5031949;28;20045;-64
2023/07/27 05:35:19;;;;;;;9.43;6.57;;;14.50;99.90;;;;;;5029919;28;20045;-65
2023/07/27 05:37:48;;;;;;;10.13;7.35;;;14.50;99.90;;;;;;5029252;28;20107;-67
2023/07/27 05:40:14;;;;;;;11.27;7.55;;;14.40;99.90;;;;;;5033664;28;20052;-66
2023/07/27 05:42:41;;;;;;;8.70;6.68;;;14.60;99.90;;;;;;5034170;28;20075;-67
2023/07/27 05:45:08;;;;;;;10.73;7.63;;;14.50;99.90;;;;;;5033494;28;20044;-66
2023/07/27 05:47:36;;;;;;;10.57;7.53;;;14.60;99.90;;;;;;5032873;28;20044;-66
2023/07/27 05:50:03;;;;;;;11.57;6.97;;;14.60;99.90;;;;;;5053552;28;20045;-65
2023/07/27 05:52:29;;;;;;;10.43;7.43;;;14.60;99.90;;;;;;5064800;28;20451;-65
2023/07/27 05:54:55;;;;;;;9.80;7.65;;;14.60;99.90;;;;;;5042479;28;20338;-65
2023/07/27 05:57:21;;;;;;;10.75;8.05;;;14.60;99.90;;;;;;5033703;28;20041;-65
2023/07/27 05:59:48;;;;;;;11.80;7.82;;;14.70;99.90;;;;;;5038336;28;20075;-65
2023/07/27 06:02:14;;;;;;;11.57;7.82;;;14.70;99.90;;;;;;5066142;28;20431;-65
2023/07/27 06:04:40;;;;;;;15.13;8.68;;;14.70;99.90;;;;;;5024043;28;20045;-64
2023/07/27 06:07:07;;;;;;;11.55;8.07;;;14.70;99.90;;;;;;5034106;28;20477;-65
2023/07/27 06:09:36;;;;;;;13.13;8.65;;;14.70;99.90;;;;;;5051280;28;20433;-65
2023/07/27 06:12:11;;;;;;;11.05;8.50;;;14.70;99.90;;;;;;5032264;28;20045;-65
2023/07/27 06:14:40;;;;;;;13.30;8.73;;;14.70;99.90;;;;;;5021135;28;20049;-65
2023/07/27 06:17:07;;;;;;;11.10;8.00;;;14.80;99.90;;;;;;5031906;28;20439;-66
2023/07/27 06:19:33;;;;;;;12.23;9.35;;;14.70;99.90;;;;;;5049477;28;20049;-64
2023/07/27 06:21:59;;;;;;;11.90;9.02;;;14.80;99.90;;;;;;5049394;28;20060;-65
2023/07/27 06:24:26;;;;;;;11.77;9.13;;;14.70;99.90;;;;;;5031633;28;20053;-68
2023/07/27 06:26:52;;;;;;;10.52;8.88;;;14.80;99.90;;;;;;5050181;28;20064;-65
2023/07/27 06:29:19;;;;;;;12.15;9.38;;;14.80;99.90;;;;;;5016655;28;20048;-66
2023/07/27 06:31:45;;;;;;;11.15;8.88;;;14.80;99.90;;;;;;5030331;28;20049;-66
2023/07/27 06:34:13;;;;;;;13.93;9.15;;;14.80;99.90;;;;;;5033260;28;20049;-64
2023/07/27 06:36:39;;;;;;;12.98;9.43;;;14.80;99.90;;;;;;5050304;28;20049;-66
2023/07/27 06:39:05;;;;;;;10.95;8.38;;;14.90;99.90;;;;;;5047545;28;20416;-65
2023/07/27 06:41:32;;;;;;;10.57;8.35;;;14.90;99.90;;;;;;5016503;28;20103;-65
2023/07/27 06:43:58;;;;;;;10.63;8.60;;;14.80;99.90;;;;;;5049980;28;20057;-66
2023/07/27 06:46:26;;;;;;;11.20;7.80;;;14.90;99.90;;;;;;5033210;28;20072;-66
2023/07/27 06:48:52;;;;;;;10.77;8.10;;;14.80;99.90;;;;;;5050383;28;20061;-67
2023/07/27 06:51:19;;;;;;;10.25;8.13;;;14.80;99.90;;;;;;5049447;28;20048;-67
2023/07/27 06:53:45;;;;;;;8.82;7.28;;;14.80;99.90;;;;;;5039839;28;20042;-65
2023/07/27 06:56:11;;;;;;;10.60;7.70;;;14.80;99.90;;;;;;5045625;28;20069;-65
2023/07/27 06:58:39;;;;;;;8.48;6.80;;;14.80;99.90;;;;;;5051372;28;20115;-68
2023/07/27 07:01:05;;;;;;;9.30;7.65;;;14.90;99.90;;;;;;5042950;28;20057;-66
2023/07/27 07:03:32;;;;;;;9.32;6.80;;;14.80;99.90;;;;;;5026638;28;20072;-66
2023/07/27 07:05:58;;;;;;;8.82;6.88;;;14.80;99.90;;;;;;5001439;28;20054;-66
2023/07/27 07:08:25;;;;;;;8.60;6.57;;;14.90;99.90;;;;;;5000952;28;20057;-66
2023/07/27 07:10:51;;;;;;;8.65;6.53;;;14.90;99.90;;;;;;5036138;28;20049;-67
2023/07/27 07:13:17;;;;;;;9.98;7.07;;;14.90;99.90;;;;;;5036792;28;20475;-66
2023/07/27 07:15:45;;;;;;;8.52;7.00;;;15.00;99.90;;;;;;5037451;28;20049;-65
2023/07/27 07:18:12;;;;;;;7.82;6.45;;;14.90;99.90;;;;;;5020523;28;20363;-66
2023/07/27 07:20:38;;;;;;;8.15;6.65;;;15.00;99.90;;;;;;5054580;28;20555;-66
2023/07/27 07:23:05;;;;;;;8.80;7.00;;;15.00;99.90;;;;;;5037305;28;20052;-66
2023/07/27 07:25:31;;;;;;;10.48;6.85;;;15.00;99.90;;;;;;5036784;28;20393;-65
2023/07/27 07:27:57;;;;;;;9.02;6.35;;;15.00;99.90;;;;;;5038844;28;20460;-66
2023/07/27 07:30:25;;;;;;;9.00;6.45;;;15.00;99.90;;;;;;5044074;28;20049;-66
2023/07/27 07:32:51;;;;;;;7.18;6.07;;;15.10;99.90;;;;;;5043481;28;20051;-67
2023/07/27 07:35:18;;;;;;;7.18;5.90;;;15.10;99.90;;;;;;5057926;28;20045;-65
2023/07/27 07:37:44;;;;;;;7.80;5.97;;;15.00;99.90;;;;;;5058439;28;20052;-66
2023/07/27 07:40:11;;;;;;;7.40;5.68;;;15.00;99.90;;;;;;5036407;28;20071;-67
2023/07/27 07:42:38;;;;;;;8.70;5.78;;;15.00;99.90;;;;;;5036609;28;20107;-65
2023/07/27 07:45:05;;;;;;;6.38;5.40;;;15.10;99.90;;;;;;5036161;28;20053;-66
2023/07/27 07:47:31;;;;;;;5.78;5.13;;;15.00;99.90;;;;;;5036765;28;20048;-65
2023/07/27 07:49:59;;;;;;;6.50;5.32;;;15.10;99.90;;;;;;5036017;28;20483;-67
2023/07/27 07:52:28;;;;;;;9.75;6.13;;;15.20;99.90;;;;;;5020337;28;20060;-66
2023/07/27 07:54:56;;;;;;;7.15;5.28;;;15.20;99.90;;;;;;5041885;28;20050;-66
2023/07/27 07:57:22;;;;;;;6.70;5.30;;;15.10;99.90;;;;;;5016683;28;20150;-65
2023/07/27 07:59:48;;;;;;;6.65;5.07;;;15.20;99.90;;;;;;5016848;28;20049;-66
2023/07/27 08:02:14;;;;;;;6.20;4.63;;;15.10;99.90;;;;;;5036912;28;20057;-66
2023/07/27 08:04:41;;;;;;;4.97;4.28;;;15.20;99.90;;;;;;5036231;28;20079;-65
2023/07/27 08:07:07;;;;;;;5.47;4.63;;;15.20;99.90;;;;;;5036543;28;20049;-66
2023/07/27 08:09:33;;;;;;;4.93;4.10;;;15.30;99.90;;;;;;5053751;28;20066;-67
2023/07/27 08:11:59;;;;;;;6.95;4.50;;;15.20;99.90;;;;;;5054179;28;20059;-67
2023/07/27 08:14:26;;;;;;;5.68;4.50;;;15.40;99.90;;;;;;5019336;28;20107;-66
2023/07/27 08:16:52;;;;;;;5.43;4.32;;;15.40;99.90;;;;;;5039290;28;20158;-66
2023/07/27 08:19:18;;;;;;;6.57;4.55;;;15.50;99.90;;;;;;5056020;28;20044;-66
2023/07/27 08:21:46;;;;;;;7.05;4.25;;;15.40;99.90;;;;;;5046994;28;20377;-66
2023/07/27 08:24:12;;;;;;;4.65;3.78;;;15.60;99.90;;;;;;5019334;28;20051;-66
2023/07/27 08:26:38;;;;;;;6.20;4.05;;;15.60;99.90;;;;;;5036380;28;20049;-66
2023/07/27 08:29:05;;;;;;;4.32;3.65;;;15.60;99.90;;;;;;5033001;28;20049;-67
2023/07/27 08:31:31;;;;;;;4.45;3.28;;;15.60;99.90;;;;;;5054333;28;20045;-66
2023/07/27 08:33:57;;;;;;;4.60;3.25;;;15.70;99.90;;;;;;5036503;28;20051;-66
2023/07/27 08:36:24;;;;;;;5.00;3.47;;;15.70;99.90;;;;;;5035559;28;20049;-66
2023/07/27 08:38:51;;;;;;;4.15;3.03;;;15.80;99.90;;;;;;5036340;28;20055;-68
2023/07/27 08:41:17;;;;;;;3.58;2.85;;;15.80;99.90;;;;;;5036339;28;20394;-66
2023/07/27 08:43:45;;;;;;;3.78;2.97;;;15.90;99.90;;;;;;5018578;28;20063;-66
2023/07/27 08:46:12;;;;;;;3.22;2.78;;;16.00;99.90;;;;;;5053649;28;20059;-67
2023/07/27 08:48:40;;;;;;;3.88;2.60;;;16.00;99.90;;;;;;5018647;28;20052;-67
2023/07/27 08:51:06;;;;;;;3.50;3.00;;;16.10;99.90;;;;;;5052884;28;20466;-65
2023/07/27 08:53:32;;;;;;;3.55;3.13;;;16.10;99.90;;;;;;5051699;28;20368;-66
2023/07/27 08:55:59;;;;;;;3.60;2.63;;;16.30;99.90;;;;;;5015843;28;20049;-65
2023/07/27 08:58:26;;;;;;;3.80;3.08;;;16.40;99.90;;;;;;5015270;28;20079;-68
2023/07/27 09:00:53;;;;;;;3.25;2.88;;;16.50;99.90;;;;;;5043431;28;20063;-67
2023/07/27 09:03:20;;;;;;;3.25;2.60;;;16.70;99.90;;;;;;5053234;28;20045;-67
2023/07/27 09:05:57;;;;;;;3.70;2.90;;;16.80;99.90;;;;;;5035080;28;20063;-66
2023/07/27 09:08:27;;;;;;;4.05;3.03;;;16.80;99.90;;;;;;5034756;28;20056;-67
2023/07/27 09:10:53;;;;;;;3.78;3.08;;;17.00;99.90;;;;;;5018991;28;20052;-66
2023/07/27 09:13:20;;;;;;;3.35;2.83;;;16.90;99.90;;;;;;5018509;28;20142;-67
2023/07/27 09:15:46;;;;;;;3.10;2.60;;;17.00;99.90;;;;;;5052429;28;20396;-66
2023/07/27 09:18:14;;;;;;;3.20;2.90;;;17.00;99.90;;;;;;5052343;28;20052;-66
2023/07/27 09:20:42;;;;;;;3.33;2.75;;;17.00;99.90;;;;;;5035425;28;20529;-66
2023/07/27 09:23:17;;;;;;;3.28;2.88;;;17.00;99.90;;;;;;5035007;28;20055;-66
2023/07/27 09:25:54;;;;;;;3.28;2.85;;;17.00;99.90;;;;;;5048134;28;20386;-66
2023/07/27 09:28:26;;;;;;;4.53;3.13;;;17.00;99.90;;;;;;5052049;28;20056;-66
2023/07/27 09:31:02;;;;;;;4.38;3.20;;;17.10;99.90;;;;;;5034760;28;20329;-66
2023/07/27 09:33:29;;;;;;;4.20;3.30;;;17.10;99.90;;;;;;5034054;28;20049;-66
2023/07/27 09:35:56;;;;;;;3.38;3.05;;;17.20;99.90;;;;;;5029100;28;20055;-67
2023/07/27 09:38:24;;;;;;;3.78;3.47;;;17.20;99.90;;;;;;5034587;28;20044;-66
2023/07/27 09:40:51;;;;;;;3.58;3.28;;;17.30;99.90;;;;;;5034635;28;20056;-67
2023/07/27 09:43:17;;;;;;;4.43;3.65;;;17.40;99.90;;;;;;5034775;28;20053;-66
2023/07/27 09:45:45;;;;;;;3.90;3.55;;;17.50;99.90;;;;;;5034317;28;20122;-66
2023/07/27 09:48:12;;;;;;;4.47;3.53;;;17.40;99.90;;;;;;5052197;28;20060;-67
2023/07/27 09:50:40;;;;;;;4.25;3.58;;;17.50;99.90;;;;;;5052472;28;20069;-66
2023/07/27 09:53:07;;;;;;;4.00;3.58;;;17.50;99.90;;;;;;5017968;28;20056;-67
2023/07/27 09:55:34;;;;;;;4.20;3.55;;;17.50;99.90;;;;;;5051448;28;20110;-67
2023/07/27 09:58:01;;;;;;;3.90;3.50;;;17.60;99.90;;;;;;5051757;28;20060;-66
2023/07/27 10:00:29;;;;;;;4.13;3.72;;;17.60;99.90;;;;;;5046492;28;20104;-65
2023/07/27 10:02:56;;;;;;;4.15;3.75;;;17.70;99.90;;;;;;5014369;28;20053;-66
2023/07/27 10:05:23;;;;;;;4.05;3.65;;;17.70;99.90;;;;;;5014311;28;20110;-66
2023/07/27 10:07:51;;;;;;;4.07;3.67;;;17.80;99.90;;;;;;5017797;28;20517;-65
2023/07/27 10:10:32;;;;;;;4.38;3.97;;;17.80;99.90;;;;;;5001427;28;20048;-66
2023/07/27 10:13:26;;;;;;;4.15;3.75;;;17.80;99.90;;;;;;5017727;28;20491;-65
2023/07/27 10:15:53;;;;;;;5.15;4.65;;;17.90;99.90;;;;;;5018747;28;20511;-66
2023/07/27 10:18:24;;;;;;;5.32;3.88;;;18.00;99.90;;;;;;5033947;28;20473;-65
2023/07/27 10:20:51;;;;;;;4.10;3.70;;;18.10;99.90;;;;;;5034371;28;20068;-66
2023/07/27 10:23:25;;;;;;;3.92;3.40;;;18.00;99.90;;;;;;5034189;28;20064;-65
2023/07/27 10:25:54;;;;;;;4.35;3.95;;;17.90;99.90;;;;;;5034010;28;20051;-66
2023/07/27 10:28:48;;;;;;;4.30;3.53;;;18.00;99.90;;;;;;5017295;28;20049;-66
2023/07/27 10:31:24;;;;;;;4.45;4.03;;;17.80;99.90;;;;;;5034330;28;20416;-65
2023/07/27 10:33:59;;;;;;;4.57;3.72;;;17.80;99.90;;;;;;5030980;28;20040;-67
2023/07/27 10:36:52;;;;;;;4.20;3.80;;;17.80;99.90;;;;;;5012065;28;20081;-67
2023/07/27 10:39:25;;;;;;;4.15;3.75;;;17.80;99.90;;;;;;5001829;28;20053;-67
2023/07/27 10:42:09;;;;;;;4.57;4.18;;;17.90;99.90;;;;;;5029014;28;20042;-68
2023/07/27 10:44:49;;;;;;;4.53;4.10;;;17.90;99.90;;;;;;5020186;28;20045;-68
2023/07/27 10:47:33;;;;;;;4.93;4.43;;;18.00;99.90;;;;;;5028999;28;20115;-68
2023/07/27 10:50:00;;;;;;;5.05;4.55;;;17.90;99.90;;;;;;5037621;28;20059;-67
2023/07/27 10:52:32;;;;;;;4.78;4.35;;;17.90;99.90;;;;;;5055163;28;20366;-68
2023/07/27 10:54:59;;;;;;;4.65;4.22;;;18.00;99.90;;;;;;5057239;28;20509;-67
2023/07/27 10:57:28;;;;;;;4.65;4.25;;;18.00;99.90;;;;;;5031093;28;20106;-69
2023/07/27 10:59:54;;;;;;;5.03;4.53;;;18.20;99.90;;;;;;5070148;28;20055;-68
2023/07/27 11:02:23;;;;;;;4.93;4.53;;;18.10;99.90;;;;;;5054694;28;20056;-68
2023/07/27 11:04:57;;;;;;;4.97;4.53;;;18.20;99.90;;;;;;5044315;28;20049;-70
2023/07/27 11:07:39;;;;;;;5.18;4.68;;;18.20;99.90;;;;;;5026449;28;20053;-68
2023/07/27 11:10:16;;;;;;;5.03;4.13;;;18.30;99.90;;;;;;5037237;28;20435;-67
2023/07/27 11:12:49;;;;;;;5.75;4.88;;;18.40;99.90;;;;;;5063273;28;20044;-68
2023/07/27 11:15:26;;;;;;;4.90;4.40;;;18.60;99.90;;;;;;5042204;28;20060;-67
2023/07/27 11:17:55;;;;;;;4.90;4.13;;;18.70;99.90;;;;;;5034690;28;20049;-67
2023/07/27 11:20:23;;;;;;;4.40;4.00;;;18.80;99.90;;;;;;5052808;28;20103;-69
2023/07/27 11:22:50;;;;;;;4.80;3.90;;;18.90;99.90;;;;;;5055014;28;20056;-68
2023/07/27 11:25:17;;;;;;;4.43;3.47;;;18.90;99.90;;;;;;5036863;28;20450;-68
2023/07/27 11:27:51;;;;;;;3.95;3.55;;;18.90;99.90;;;;;;5036825;28;20391;-70
2023/07/27 11:30:21;;;;;;;3.70;3.22;;;18.80;99.90;;;;;;5037340;28;20056;-68
2023/07/27 11:33:04;;;;;;;4.15;3.75;;;19.00;99.90;;;;;;5054868;28;20060;-69
2023/07/27 11:35:31;;;;;;;4.65;3.95;;;18.90;99.90;;;;;;5033447;28;20053;-67
2023/07/27 11:37:58;;;;;;;4.68;3.78;;;18.90;99.90;;;;;;5035792;28;20503;-67
2023/07/27 11:40:26;;;;;;;3.92;3.53;;;18.80;99.90;;;;;;5020714;28;20048;-68
2023/07/27 11:42:55;;;;;;;4.20;3.80;;;18.80;99.90;;;;;;5020725;28;20065;-68
2023/07/27 11:45:22;;;;;;;4.20;3.80;;;18.90;99.90;;;;;;5020236;28;20057;-68
2023/07/27 11:47:51;;;;;;;4.07;2.97;;;18.90;99.90;;;;;;5020351;28;20056;-68
2023/07/27 11:50:17;;;;;;;3.85;3.47;;;18.80;99.90;;;;;;5035502;28;20057;-69
2023/07/27 11:52:44;;;;;;;4.28;3.38;;;19.00;99.90;;;;;;5035570;28;20059;-68
2023/07/27 11:55:14;;;;;;;4.03;3.42;;;18.90;99.90;;;;;;5034835;28;20470;-68
2023/07/27 11:57:40;;;;;;;3.80;3.28;;;18.90;99.90;;;;;;5053179;28;20056;-67
2023/07/27 12:00:14;;;;;;;3.70;2.42;;;18.90;99.90;;;;;;5035902;28;20064;-68
2023/07/27 12:02:44;;;;;;;3.35;2.22;;;18.90;99.90;;;;;;5036715;28;20045;-68
2023/07/27 12:05:15;;;;;;;4.57;2.65;;;19.00;99.90;;;;;;5035309;28;20060;-68
2023/07/27 12:07:45;;;;;;;4.00;2.78;;;19.00;99.90;;;;;;5019844;28;20049;-68
2023/07/27 12:10:13;;;;;;;3.42;2.17;;;19.10;99.90;;;;;;5036426;28;20057;-70
2023/07/27 12:13:00;;;;;;;9.25;3.67;;;19.20;99.90;;;;;;5036411;28;20052;-67
2023/07/27 12:15:35;;;;;;;6.55;3.25;;;19.10;99.90;;;;;;5036380;28;20060;-67
2023/07/27 12:18:03;;;;;;;9.23;4.10;;;19.10;99.90;;;;;;5035789;28;20119;-68
2023/07/27 12:20:31;;;;;;;14.23;5.40;;;19.20;99.90;;;;;;5053709;28;20464;-68
2023/07/27 12:22:58;;;;;;;4.88;2.97;;;19.30;99.90;;;;;;5035925;28;20044;-67
2023/07/27 12:25:28;;;;;;;3.65;2.33;;;19.20;99.90;;;;;;5035093;28;20045;-67
2023/07/27 12:27:54;;;;;;;4.80;2.70;;;19.30;99.90;;;;;;5052976;28;20449;-67
2023/07/27 12:30:22;;;;;;;3.83;2.38;;;19.10;99.90;;;;;;5035650;28;20598;-67
2023/07/27 12:32:49;;;;;;;3.03;2.45;;;19.10;99.90;;;;;;5035804;28;20393;-67
2023/07/27 12:35:16;;;;;;;3.10;2.10;;;19.20;99.90;;;;;;5019070;28;20052;-67
2023/07/27 12:37:43;;;;;;;2.72;2.00;;;19.40;99.90;;;;;;5034872;28;20056;-67
2023/07/27 12:40:10;;;;;;;2.33;1.45;;;19.40;99.90;;;;;;5018931;28;20461;-67
2023/07/27 12:42:36;;;;;;;1.67;1.33;;;19.30;99.90;;;;;;5035874;28;20469;-67
2023/07/27 12:45:03;;;;;;;2.50;1.38;;;19.30;99.90;;;;;;5018820;28;20041;-69
2023/07/27 12:47:29;;;;;;;1.75;1.13;;;19.10;99.90;;;;;;5052971;28;20071;-68
2023/07/27 12:49:55;;;;;;;3.13;1.48;;;19.20;99.90;;;;;;5034988;28;20076;-67
2023/07/27 12:52:22;;;;;;;2.65;1.83;;;19.10;99.90;;;;;;5035907;28;20049;-68